Time;durP1;ratioP1;P1;durP2;ratioP2;P2;SDS_P1;SDS_P2;PMS_P1;PMS_P2;Temp;Humidity;BMP_temperature;BMP_pressure;BME280_temperature;BME280_humidity;BME280_pressure;Samples;Min_cycle;Max_cycle;Signal;HPM_P1;HPM_P2
2021/11/14 00:02:10;;;;;;;3.50;3.20;;;;;;;;;;5078949;28;20400;-68
2021/11/14 00:04:42;;;;;;;3.50;2.92;;;;;;;;;;5060681;28;20475;-68
2021/11/14 00:07:11;;;;;;;3.28;2.97;;;;;;;;;;5056749;28;20388;-68
2021/11/14 00:09:42;;;;;;;3.50;3.20;;;;;;;;;;5083837;28;20404;-68
2021/11/14 00:12:14;;;;;;;3.05;2.85;;;;;;;;;;5077026;28;20401;-68
2021/11/14 00:14:45;;;;;;;3.30;3.00;;;;;;;;;;5080296;28;20394;-68
2021/11/14 00:17:17;;;;;;;3.72;3.17;;;;;;;;;;5079797;28;20407;-68
2021/11/14 00:19:48;;;;;;;3.38;3.08;;;;;;;;;;5081128;28;20393;-68
2021/11/14 00:22:18;;;;;;;3.85;3.45;;;;;;;;;;5067005;28;21062;-68
2021/11/14 00:24:45;;;;;;;3.45;3.15;;;;;;;;;;5063721;28;20880;-68
2021/11/14 00:27:14;;;;;;;3.40;3.10;;;;;;;;;;5084898;28;20400;-68
2021/11/14 00:29:46;;;;;;;3.38;3.08;;;;;;;;;;5078983;28;20987;-68
2021/11/14 00:32:17;;;;;;;3.20;3.00;;;;;;;;;;5085250;28;20391;-67
2021/11/14 00:34:50;;;;;;;3.10;2.80;;;;;;;;;;5076546;28;20404;-67
2021/11/14 00:37:22;;;;;;;3.42;2.90;;;;;;;;;;5071833;28;20430;-68
2021/11/14 00:39:55;;;;;;;3.20;3.00;;;;;;;;;;5081290;28;20400;-68
2021/11/14 00:42:24;;;;;;;3.40;3.00;;;;;;;;;;5080521;28;20425;-68
2021/11/14 00:44:54;;;;;;;3.15;2.85;;;;;;;;;;5064873;28;20423;-68
2021/11/14 00:47:23;;;;;;;3.63;3.33;;;;;;;;;;5086033;28;20392;-68
2021/11/14 00:49:56;;;;;;;3.17;2.97;;;;;;;;;;5055440;28;20842;-68
2021/11/14 00:52:27;;;;;;;3.05;2.83;;;;;;;;;;5085750;28;20387;-68
2021/11/14 00:55:11;;;;;;;3.08;2.78;;;;;;;;;;5080275;28;20536;-68
2021/11/14 00:57:40;;;;;;;3.10;2.90;;;;;;;;;;5083556;28;20385;-68
2021/11/14 01:00:16;;;;;;;3.35;3.05;;;;;;;;;;5060426;28;20794;-68
2021/11/14 01:02:59;;;;;;;3.72;3.40;;;;;;;;;;5067988;28;20480;-68
2021/11/14 01:05:31;;;;;;;3.45;3.15;;;;;;;;;;5068062;28;20400;-68
2021/11/14 01:08:01;;;;;;;3.87;3.20;;;;;;;;;;5062816;28;20404;-68
2021/11/14 01:10:30;;;;;;;3.65;3.35;;;;;;;;;;5054844;28;20397;-67
2021/11/14 01:13:01;;;;;;;3.50;3.25;;;;;;;;;;5083576;28;20398;-68
2021/11/14 01:15:33;;;;;;;3.80;3.50;;;;;;;;;;5094028;28;20398;-68
2021/11/14 01:18:05;;;;;;;4.13;3.53;;;;;;;;;;5065851;28;20437;-68
2021/11/14 01:20:37;;;;;;;3.42;3.22;;;;;;;;;;5090320;28;20432;-68
2021/11/14 01:23:07;;;;;;;3.42;3.20;;;;;;;;;;5083826;28;20413;-68
2021/11/14 01:25:35;;;;;;;3.65;3.35;;;;;;;;;;5087604;28;20384;-68
2021/11/14 01:28:08;;;;;;;3.73;3.40;;;;;;;;;;5085958;28;20397;-68
2021/11/14 01:30:40;;;;;;;3.60;3.30;;;;;;;;;;5086712;28;20879;-68
2021/11/14 01:33:14;;;;;;;3.70;3.40;;;;;;;;;;5077660;28;20406;-68
2021/11/14 01:35:44;;;;;;;3.60;3.30;;;;;;;;;;5086235;28;20392;-68
2021/11/14 01:38:13;;;;;;;3.95;3.65;;;;;;;;;;5062609;28;20462;-68
2021/11/14 01:40:47;;;;;;;3.90;3.60;;;;;;;;;;5064381;28;20402;-68
2021/11/14 01:43:17;;;;;;;3.75;3.45;;;;;;;;;;5066990;28;20856;-68
2021/11/14 01:45:47;;;;;;;3.80;3.50;;;;;;;;;;5069496;28;20404;-68
2021/11/14 01:48:20;;;;;;;3.72;3.42;;;;;;;;;;5085289;28;20821;-69
2021/11/14 01:50:52;;;;;;;3.90;3.60;;;;;;;;;;5066285;28;20510;-68
2021/11/14 01:53:25;;;;;;;3.90;3.60;;;;;;;;;;5071178;28;20396;-68
2021/11/14 01:55:57;;;;;;;3.83;3.53;;;;;;;;;;5069807;28;20385;-68
2021/11/14 01:58:27;;;;;;;4.10;3.80;;;;;;;;;;5091998;28;20396;-68
2021/11/14 02:00:58;;;;;;;3.97;3.67;;;;;;;;;;5082250;28;20394;-68
2021/11/14 02:03:30;;;;;;;4.10;3.80;;;;;;;;;;5086526;28;20820;-68
2021/11/14 02:06:00;;;;;;;3.97;3.67;;;;;;;;;;5066713;28;20385;-68
2021/11/14 02:08:30;;;;;;;4.00;3.70;;;;;;;;;;5085159;28;20402;-68
2021/11/14 02:10:58;;;;;;;4.18;3.88;;;;;;;;;;5081435;28;20488;-68
2021/11/14 02:13:39;;;;;;;4.18;3.63;;;;;;;;;;5087477;28;20432;-68
2021/11/14 02:16:09;;;;;;;4.78;4.38;;;;;;;;;;5084223;28;20400;-68
2021/11/14 02:18:38;;;;;;;4.00;3.70;;;;;;;;;;5061922;28;20409;-68
2021/11/14 02:21:10;;;;;;;4.25;3.95;;;;;;;;;;5068178;28;20845;-68
2021/11/14 02:23:39;;;;;;;4.15;3.85;;;;;;;;;;5065528;28;20981;-68
2021/11/14 02:26:08;;;;;;;4.20;3.85;;;;;;;;;;5063774;28;20671;-68
2021/11/14 02:28:38;;;;;;;4.40;4.10;;;;;;;;;;5049334;28;20728;-68
2021/11/14 02:31:06;;;;;;;4.43;4.03;;;;;;;;;;5073813;28;20910;-68
2021/11/14 02:33:35;;;;;;;4.45;4.07;;;;;;;;;;5084541;28;20392;-68
2021/11/14 02:36:09;;;;;;;4.55;4.15;;;;;;;;;;5071615;28;20400;-68
2021/11/14 02:38:38;;;;;;;4.75;4.35;;;;;;;;;;5065649;28;20396;-68
2021/11/14 02:41:13;;;;;;;4.45;4.15;;;;;;;;;;5071923;28;20482;-68
2021/11/14 02:43:52;;;;;;;4.60;4.20;;;;;;;;;;5086119;28;20400;-68
2021/11/14 02:46:24;;;;;;;4.70;4.30;;;;;;;;;;5068997;28;20392;-68
2021/11/14 02:48:56;;;;;;;4.60;4.20;;;;;;;;;;5080436;28;20765;-68
2021/11/14 02:51:29;;;;;;;4.53;4.20;;;;;;;;;;5082189;28;20400;-68
2021/11/14 02:53:59;;;;;;;4.72;4.32;;;;;;;;;;5057236;28;20885;-68
2021/11/14 02:56:29;;;;;;;4.72;4.32;;;;;;;;;;5066125;28;20402;-68
2021/11/14 02:58:57;;;;;;;4.50;4.20;;;;;;;;;;5060806;28;20402;-67
2021/11/14 03:01:34;;;;;;;4.65;4.25;;;;;;;;;;5066508;28;20884;-67
2021/11/14 03:04:05;;;;;;;4.70;4.30;;;;;;;;;;5059886;28;20496;-67
2021/11/14 03:06:35;;;;;;;4.60;4.28;;;;;;;;;;5045928;28;20398;-70
2021/11/14 03:09:03;;;;;;;4.80;4.40;;;;;;;;;;5061837;28;20876;-68
2021/11/14 03:11:33;;;;;;;4.72;4.35;;;;;;;;;;5063750;28;20386;-69
2021/11/14 03:14:00;;;;;;;4.90;4.40;;;;;;;;;;5060683;28;20403;-68
2021/11/14 03:16:28;;;;;;;4.75;4.35;;;;;;;;;;5067575;28;20420;-68
2021/11/14 03:18:56;;;;;;;4.93;4.43;;;;;;;;;;5062117;28;20398;-68
2021/11/14 03:21:24;;;;;;;5.05;4.65;;;;;;;;;;5062203;28;20398;-68
2021/11/14 03:23:51;;;;;;;4.90;4.50;;;;;;;;;;5059448;28;20545;-68
2021/11/14 03:26:18;;;;;;;4.55;4.15;;;;;;;;;;5062189;28;21166;-68
2021/11/14 03:28:46;;;;;;;5.18;4.78;;;;;;;;;;5060490;28;20402;-68
2021/11/14 03:31:13;;;;;;;4.55;4.15;;;;;;;;;;5063364;28;20474;-68
2021/11/14 03:33:41;;;;;;;5.07;4.68;;;;;;;;;;5057989;28;20411;-68
2021/11/14 03:36:18;;;;;;;5.25;4.82;;;;;;;;;;5066657;28;20402;-68
2021/11/14 03:38:46;;;;;;;5.38;4.90;;;;;;;;;;5060755;28;20386;-68
2021/11/14 03:41:15;;;;;;;5.47;5.05;;;;;;;;;;5062648;28;20910;-68
2021/11/14 03:43:43;;;;;;;5.03;4.63;;;;;;;;;;5056150;28;20391;-68
2021/11/14 03:46:11;;;;;;;5.57;5.00;;;;;;;;;;5064353;28;20907;-68
2021/11/14 03:48:40;;;;;;;5.40;4.95;;;;;;;;;;5062252;28;20386;-68
2021/11/14 03:51:08;;;;;;;5.20;4.70;;;;;;;;;;5062380;28;20452;-68
2021/11/14 03:53:36;;;;;;;5.15;4.72;;;;;;;;;;5064202;28;20421;-67
2021/11/14 03:56:04;;;;;;;5.47;4.97;;;;;;;;;;5066628;28;20623;-67
2021/11/14 03:58:32;;;;;;;5.35;4.85;;;;;;;;;;5061979;28;21047;-67
2021/11/14 04:01:01;;;;;;;5.43;4.97;;;;;;;;;;5063302;28;20397;-69
2021/11/14 04:03:29;;;;;;;5.68;5.10;;;;;;;;;;5063443;28;20889;-68
2021/11/14 04:05:56;;;;;;;5.88;5.38;;;;;;;;;;5062353;28;20425;-68
2021/11/14 04:08:25;;;;;;;5.78;5.28;;;;;;;;;;5054957;28;20389;-68
2021/11/14 04:10:53;;;;;;;5.97;5.37;;;;;;;;;;5061119;28;21333;-67
2021/11/14 04:13:21;;;;;;;5.97;5.40;;;;;;;;;;5071068;28;20398;-68
2021/11/14 04:15:48;;;;;;;5.82;5.32;;;;;;;;;;5063662;28;20390;-68
2021/11/14 04:18:15;;;;;;;5.97;5.47;;;;;;;;;;5061069;28;20424;-68
2021/11/14 04:20:44;;;;;;;5.63;5.13;;;;;;;;;;5061700;28;20412;-68
2021/11/14 04:23:12;;;;;;;5.82;5.32;;;;;;;;;;5073656;28;20404;-68
2021/11/14 04:25:39;;;;;;;5.67;5.17;;;;;;;;;;5067004;28;20722;-68
2021/11/14 04:28:09;;;;;;;5.63;5.13;;;;;;;;;;5075186;28;20483;-68
2021/11/14 04:30:36;;;;;;;6.03;5.53;;;;;;;;;;5063423;28;20426;-68
2021/11/14 04:33:04;;;;;;;6.60;5.90;;;;;;;;;;5066231;28;20403;-68
2021/11/14 04:35:32;;;;;;;6.57;6.03;;;;;;;;;;5065322;28;20401;-68
2021/11/14 04:37:59;;;;;;;6.50;5.90;;;;;;;;;;5072408;28;20398;-68
2021/11/14 04:40:27;;;;;;;6.53;5.90;;;;;;;;;;5066754;28;20399;-68
2021/11/14 04:42:54;;;;;;;6.45;5.85;;;;;;;;;;5066166;28;20411;-68
2021/11/14 04:45:22;;;;;;;6.27;5.67;;;;;;;;;;5067543;28;20404;-68
2021/11/14 04:47:49;;;;;;;6.65;6.05;;;;;;;;;;5074451;28;20388;-68
2021/11/14 04:50:18;;;;;;;6.22;5.70;;;;;;;;;;5048935;28;20412;-69
2021/11/14 04:52:45;;;;;;;6.45;5.85;;;;;;;;;;5059353;28;20387;-68
2021/11/14 04:55:13;;;;;;;6.35;5.75;;;;;;;;;;5049070;28;20402;-68
2021/11/14 04:57:40;;;;;;;6.45;5.90;;;;;;;;;;5069535;28;20413;-68
2021/11/14 05:00:12;;;;;;;6.53;5.93;;;;;;;;;;5065851;28;20404;-68
2021/11/14 05:02:40;;;;;;;7.05;6.35;;;;;;;;;;5063146;28;20401;-68
2021/11/14 05:05:07;;;;;;;6.63;6.03;;;;;;;;;;5061828;28;20505;-68
2021/11/14 05:07:35;;;;;;;7.25;6.55;;;;;;;;;;5068837;28;20390;-68
2021/11/14 05:10:02;;;;;;;7.05;6.38;;;;;;;;;;5067517;28;20401;-68
2021/11/14 05:12:29;;;;;;;7.03;6.32;;;;;;;;;;5066016;28;20393;-68
2021/11/14 05:14:56;;;;;;;7.38;6.68;;;;;;;;;;5062994;28;20855;-68
2021/11/14 05:17:23;;;;;;;7.72;7.03;;;;;;;;;;5067467;28;20968;-68
2021/11/14 05:19:52;;;;;;;7.40;6.68;;;;;;;;;;5061070;28;20929;-68
2021/11/14 05:22:19;;;;;;;7.38;6.55;;;;;;;;;;5067674;28;20409;-68
2021/11/14 05:24:47;;;;;;;8.13;7.32;;;;;;;;;;5045163;28;20401;-67
2021/11/14 05:27:14;;;;;;;7.40;6.70;;;;;;;;;;5068408;28;20390;-67
2021/11/14 05:29:41;;;;;;;7.40;6.70;;;;;;;;;;5066859;28;20436;-67
2021/11/14 05:32:09;;;;;;;7.95;7.15;;;;;;;;;;5051514;28;20390;-67
2021/11/14 05:34:36;;;;;;;7.72;6.93;;;;;;;;;;5056312;28;20395;-68
2021/11/14 05:37:03;;;;;;;8.60;7.73;;;;;;;;;;5068406;28;20406;-67
2021/11/14 05:39:30;;;;;;;8.77;7.97;;;;;;;;;;5060662;28;20400;-67
2021/11/14 05:41:58;;;;;;;8.70;7.90;;;;;;;;;;5065386;28;20437;-67
2021/11/14 05:44:25;;;;;;;8.70;7.90;;;;;;;;;;5068713;28;20390;-67
2021/11/14 05:46:52;;;;;;;9.05;8.05;;;;;;;;;;5068945;28;20405;-68
2021/11/14 05:49:20;;;;;;;9.00;8.02;;;;;;;;;;5066086;28;20390;-68
2021/11/14 05:51:47;;;;;;;8.43;7.63;;;;;;;;;;5066413;28;20382;-67
2021/11/14 05:54:14;;;;;;;8.13;7.43;;;;;;;;;;5061386;28;20402;-67
2021/11/14 05:56:41;;;;;;;8.38;7.57;;;;;;;;;;5068701;28;20466;-67
2021/11/14 06:07:00;;;;;;;8.02;7.30;;;;;;;;;;5061635;28;20428;-68
2021/11/14 06:09:27;;;;;;;8.23;7.32;;;;;;;;;;5065850;28;20391;-68
2021/11/14 06:11:54;;;;;;;8.45;7.65;;;;;;;;;;5063267;28;20405;-68
2021/11/14 06:14:22;;;;;;;8.52;7.72;;;;;;;;;;5075464;28;20387;-68
2021/11/14 06:16:49;;;;;;;8.18;7.47;;;;;;;;;;5060141;28;20399;-68
2021/11/14 06:19:16;;;;;;;7.97;7.18;;;;;;;;;;5070758;28;20374;-68
2021/11/14 06:21:43;;;;;;;8.27;7.57;;;;;;;;;;5066688;28;20491;-68
2021/11/14 06:24:10;;;;;;;8.13;7.32;;;;;;;;;;5069423;28;20392;-68
2021/11/14 06:26:38;;;;;;;8.63;7.83;;;;;;;;;;5063027;28;20429;-69
2021/11/14 06:29:05;;;;;;;8.15;7.35;;;;;;;;;;5064388;28;20396;-68
2021/11/14 06:31:32;;;;;;;8.60;7.80;;;;;;;;;;5066595;28;20394;-68
2021/11/14 06:33:59;;;;;;;8.68;7.88;;;;;;;;;;5067013;28;20827;-68
2021/11/14 06:36:27;;;;;;;8.80;7.90;;;;;;;;;;5045393;28;20399;-68
2021/11/14 06:38:54;;;;;;;8.48;7.68;;;;;;;;;;5049763;28;20503;-68
2021/11/14 06:41:24;;;;;;;8.77;7.97;;;;;;;;;;5074959;28;20402;-67
2021/11/14 06:43:54;;;;;;;8.40;7.60;;;;;;;;;;5067502;28;20412;-68
2021/11/14 06:46:26;;;;;;;8.38;7.57;;;;;;;;;;5073729;28;20436;-67
2021/11/14 06:48:56;;;;;;;7.53;6.83;;;;;;;;;;5066107;28;20397;-67
2021/11/14 06:51:24;;;;;;;8.48;7.55;;;;;;;;;;5067107;28;20420;-65
2021/11/14 06:53:55;;;;;;;7.95;7.20;;;;;;;;;;5055118;28;20390;-66
2021/11/14 06:56:26;;;;;;;7.97;7.17;;;;;;;;;;5070501;28;20510;-65
2021/11/14 06:58:53;;;;;;;8.27;7.47;;;;;;;;;;5040037;28;20388;-65
2021/11/14 07:01:22;;;;;;;8.30;7.50;;;;;;;;;;5073369;28;20377;-65
2021/11/14 07:03:54;;;;;;;7.57;6.88;;;;;;;;;;5062045;28;20468;-64
2021/11/14 07:06:38;;;;;;;7.35;6.68;;;;;;;;;;5070061;28;20408;-65
2021/11/14 07:09:11;;;;;;;7.65;6.95;;;;;;;;;;5029322;28;20400;-65
2021/11/14 07:11:43;;;;;;;7.70;7.00;;;;;;;;;;5079619;28;20402;-66
2021/11/14 07:14:13;;;;;;;8.03;7.23;;;;;;;;;;5064977;28;20586;-66
2021/11/14 07:16:41;;;;;;;7.80;7.10;;;;;;;;;;5052111;28;20394;-67
2021/11/14 07:19:11;;;;;;;7.63;6.93;;;;;;;;;;5046586;28;20392;-68
2021/11/14 07:21:40;;;;;;;8.40;7.60;;;;;;;;;;5052569;28;20400;-65
2021/11/14 07:24:07;;;;;;;9.93;7.25;;;;;;;;;;5064153;28;20412;-65
2021/11/14 07:26:43;;;;;;;8.32;7.53;;;;;;;;;;5057623;28;20914;-64
2021/11/14 07:29:13;;;;;;;7.40;6.80;;;;;;;;;;5045283;28;20436;-64
2021/11/14 07:31:45;;;;;;;8.13;7.43;;;;;;;;;;5043359;28;20398;-67
2021/11/14 07:34:17;;;;;;;7.65;6.95;;;;;;;;;;5066873;28;20408;-67
2021/11/14 07:36:46;;;;;;;8.27;7.30;;;;;;;;;;5060156;28;20549;-66
2021/11/14 07:39:16;;;;;;;8.05;7.35;;;;;;;;;;5046586;28;20855;-64
2021/11/14 07:41:53;;;;;;;13.38;7.80;;;;;;;;;;5070737;28;20772;-65
2021/11/14 07:44:22;;;;;;;9.75;8.50;;;;;;;;;;5060098;28;20495;-66
2021/11/14 07:46:51;;;;;;;11.50;8.88;;;;;;;;;;5042678;28;20405;-68
2021/11/14 07:49:21;;;;;;;10.57;8.80;;;;;;;;;;5046200;28;20407;-67
2021/11/14 07:51:54;;;;;;;9.82;8.88;;;;;;;;;;5064076;28;20394;-67
2021/11/14 07:54:23;;;;;;;9.98;8.98;;;;;;;;;;5064795;28;20418;-68
2021/11/14 07:56:53;;;;;;;10.25;8.70;;;;;;;;;;5073788;28;20417;-67
2021/11/14 07:59:24;;;;;;;11.85;9.30;;;;;;;;;;5092661;28;20398;-66
2021/11/14 08:01:52;;;;;;;10.25;9.07;;;;;;;;;;5075824;28;20374;-65
2021/11/14 08:04:23;;;;;;;10.43;9.32;;;;;;;;;;5074033;28;20484;-64
2021/11/14 08:06:56;;;;;;;11.07;9.27;;;;;;;;;;5066128;28;20402;-64
2021/11/14 08:09:27;;;;;;;10.68;8.43;;;;;;;;;;5061081;28;20394;-64
2021/11/14 08:11:58;;;;;;;10.80;9.00;;;;;;;;;;5056330;28;20398;-64
2021/11/14 08:14:29;;;;;;;11.40;9.13;;;;;;;;;;5053553;28;20402;-65
2021/11/14 08:16:56;;;;;;;9.82;8.82;;;;;;;;;;5070377;28;20422;-67
2021/11/14 08:19:26;;;;;;;10.52;8.80;;;;;;;;;;5062407;28;20459;-67
2021/11/14 08:21:57;;;;;;;10.82;8.77;;;;;;;;;;5061362;28;20398;-68
2021/11/14 08:24:29;;;;;;;9.75;8.75;;;;;;;;;;5046911;28;20404;-67
2021/11/14 08:27:02;;;;;;;10.00;9.00;;;;;;;;;;5059310;28;20397;-67
2021/11/14 08:29:31;;;;;;;10.00;9.00;;;;;;;;;;5055841;28;20393;-69
2021/11/14 08:32:04;;;;;;;9.82;8.82;;;;;;;;;;5043939;28;20406;-66
2021/11/14 08:34:33;;;;;;;10.23;8.07;;;;;;;;;;5074044;28;20734;-66
2021/11/14 08:37:08;;;;;;;9.65;8.68;;;;;;;;;;5063819;28;20397;-67
2021/11/14 08:39:40;;;;;;;9.43;8.43;;;;;;;;;;5064897;28;20435;-67
2021/11/14 08:42:13;;;;;;;8.60;7.80;;;;;;;;;;5062073;28;20584;-65
2021/11/14 08:44:43;;;;;;;8.70;7.90;;;;;;;;;;5051890;28;21064;-65
2021/11/14 08:47:14;;;;;;;8.90;8.00;;;;;;;;;;5064452;28;20404;-69
2021/11/14 08:49:45;;;;;;;8.35;7.55;;;;;;;;;;5071483;28;20804;-68
2021/11/14 08:52:13;;;;;;;8.98;8.07;;;;;;;;;;5061495;28;20401;-68
2021/11/14 08:54:43;;;;;;;8.05;7.35;;;;;;;;;;5062730;28;20431;-68
2021/11/14 08:57:18;;;;;;;8.30;7.15;;;;;;;;;;5024836;28;20389;-69
2021/11/14 08:59:47;;;;;;;7.70;6.90;;;;;;;;;;5045504;28;20398;-68
2021/11/14 09:02:16;;;;;;;7.57;6.88;;;;;;;;;;5045155;28;20399;-68
2021/11/14 09:04:46;;;;;;;7.88;7.18;;;;;;;;;;5041958;28;20473;-68
2021/11/14 09:07:14;;;;;;;7.50;6.82;;;;;;;;;;5038863;28;20399;-66
2021/11/14 09:09:42;;;;;;;7.22;6.60;;;;;;;;;;5023839;28;20394;-67
2021/11/14 09:12:13;;;;;;;7.47;6.82;;;;;;;;;;5041257;28;20392;-65
2021/11/14 09:14:44;;;;;;;7.57;6.87;;;;;;;;;;5047832;28;20536;-65
2021/11/14 09:17:14;;;;;;;7.22;6.53;;;;;;;;;;5046310;28;20395;-64
2021/11/14 09:19:47;;;;;;;6.72;6.13;;;;;;;;;;5041173;28;20413;-64
2021/11/14 09:22:18;;;;;;;6.88;6.28;;;;;;;;;;5025882;28;20401;-65
2021/11/14 09:24:48;;;;;;;6.70;6.10;;;;;;;;;;5042300;28;21053;-64
2021/11/14 09:27:22;;;;;;;6.60;6.00;;;;;;;;;;5046527;28;20403;-67
2021/11/14 09:29:53;;;;;;;6.40;5.90;;;;;;;;;;5046205;28;20853;-67
2021/11/14 09:32:21;;;;;;;6.68;6.07;;;;;;;;;;5036215;28;20400;-67
2021/11/14 09:34:54;;;;;;;6.70;6.10;;;;;;;;;;5047537;28;20403;-68
2021/11/14 09:37:27;;;;;;;7.07;6.47;;;;;;;;;;5040870;28;20395;-68
2021/11/14 09:39:57;;;;;;;6.70;6.10;;;;;;;;;;5049929;28;20402;-68
2021/11/14 09:42:30;;;;;;;6.25;5.65;;;;;;;;;;5043268;28;20396;-67
2021/11/14 09:44:57;;;;;;;6.32;5.72;;;;;;;;;;5049241;28;20444;-68
2021/11/14 09:47:25;;;;;;;6.95;6.35;;;;;;;;;;5030023;28;20404;-68
2021/11/14 09:49:58;;;;;;;7.22;6.60;;;;;;;;;;5044440;28;20384;-68
2021/11/14 09:52:27;;;;;;;6.88;6.28;;;;;;;;;;5050401;28;20404;-67
2021/11/14 09:54:58;;;;;;;7.43;6.82;;;;;;;;;;5015656;28;20415;-66
2021/11/14 09:57:28;;;;;;;8.00;7.30;;;;;;;;;;5051082;28;20404;-67
2021/11/14 10:00:07;;;;;;;7.72;7.13;;;;;;;;;;5044531;28;20458;-66
2021/11/14 10:02:37;;;;;;;8.65;7.95;;;;;;;;;;5052985;28;20853;-67
2021/11/14 10:05:08;;;;;;;8.95;8.20;;;;;;;;;;5045148;28;20413;-67
2021/11/14 10:07:41;;;;;;;9.20;8.40;;;;;;;;;;5052471;28;20400;-65
2021/11/14 10:10:11;;;;;;;9.38;8.57;;;;;;;;;;5046409;28;20717;-68
2021/11/14 10:13:13;;;;;;;8.93;8.10;;;;;;;;;;5041711;28;20414;-68
2021/11/14 10:15:49;;;;;;;9.10;8.30;;;;;;;;;;5045163;28;20873;-67
2021/11/14 10:18:22;;;;;;;8.82;8.02;;;;;;;;;;5041959;28;20392;-67
2021/11/14 10:20:56;;;;;;;8.48;7.78;;;;;;;;;;5037116;28;20408;-65
2021/11/14 10:23:30;;;;;;;9.50;8.60;;;;;;;;;;5047024;28;20411;-65
2021/11/14 10:26:09;;;;;;;9.63;8.73;;;;;;;;;;5024233;28;20404;-65
2021/11/14 10:28:48;;;;;;;10.90;9.48;;;;;;;;;;5041762;28;20384;-64
2021/11/14 10:31:24;;;;;;;9.80;8.85;;;;;;;;;;5044321;28;20882;-67
2021/11/14 10:33:52;;;;;;;11.50;9.13;;;;;;;;;;5046310;28;20407;-67
2021/11/14 10:36:24;;;;;;;10.75;9.45;;;;;;;;;;5046611;28;20407;-67
2021/11/14 10:39:11;;;;;;;10.50;9.43;;;;;;;;;;5045100;28;20405;-66
2021/11/14 10:41:47;;;;;;;10.48;9.43;;;;;;;;;;5048256;28;21058;-67
2021/11/14 10:44:21;;;;;;;10.40;9.40;;;;;;;;;;5027756;28;21012;-66
2021/11/14 10:46:54;;;;;;;9.80;8.80;;;;;;;;;;5045799;28;21229;-66
2021/11/14 10:49:24;;;;;;;10.15;9.20;;;;;;;;;;5048754;28;20388;-66
2021/11/14 10:52:02;;;;;;;10.27;9.18;;;;;;;;;;5029149;28;20387;-66
2021/11/14 10:54:30;;;;;;;9.68;8.73;;;;;;;;;;5061447;28;20393;-66
2021/11/14 10:57:04;;;;;;;9.80;8.80;;;;;;;;;;5064870;28;20408;-68
2021/11/14 10:59:31;;;;;;;9.73;8.73;;;;;;;;;;5051820;28;20732;-68
2021/11/14 11:02:03;;;;;;;9.13;8.32;;;;;;;;;;5064524;28;20861;-69
2021/11/14 11:04:35;;;;;;;9.63;8.73;;;;;;;;;;5046050;28;20402;-68
2021/11/14 11:07:05;;;;;;;9.48;8.60;;;;;;;;;;5058517;28;20409;-69
2021/11/14 11:09:39;;;;;;;9.50;8.60;;;;;;;;;;5049225;28;20773;-68
2021/11/14 11:12:33;;;;;;;9.52;8.63;;;;;;;;;;5064393;28;20390;-67
2021/11/14 11:15:07;;;;;;;9.45;8.55;;;;;;;;;;5073983;28;20894;-67
2021/11/14 11:17:49;;;;;;;9.50;8.70;;;;;;;;;;5066140;28;20410;-69
2021/11/14 11:20:19;;;;;;;8.80;8.10;;;;;;;;;;5062508;28;20405;-67
2021/11/14 11:22:56;;;;;;;9.23;8.43;;;;;;;;;;5065776;28;20664;-67
2021/11/14 11:25:39;;;;;;;9.93;9.02;;;;;;;;;;5067606;28;20409;-67
2021/11/14 11:28:31;;;;;;;9.03;8.20;;;;;;;;;;5055787;28;20406;-68
2021/11/14 11:31:07;;;;;;;9.47;8.50;;;;;;;;;;5060146;28;20570;-68
2021/11/14 11:33:35;;;;;;;9.77;8.77;;;;;;;;;;5071143;28;20935;-67
2021/11/14 11:36:07;;;;;;;9.57;8.75;;;;;;;;;;5054148;28;20390;-67
2021/11/14 11:38:45;;;;;;;9.35;8.52;;;;;;;;;;5070533;28;20669;-67
2021/11/14 11:41:21;;;;;;;9.50;8.70;;;;;;;;;;5049934;28;20396;-65
2021/11/14 11:43:54;;;;;;;10.02;9.15;;;;;;;;;;5061720;28;20413;-65
2021/11/14 11:46:30;;;;;;;9.73;8.85;;;;;;;;;;5061751;28;20917;-70
2021/11/14 11:49:29;;;;;;;9.70;8.80;;;;;;;;;;5057193;28;20397;-69
2021/11/14 11:52:08;;;;;;;9.85;8.75;;;;;;;;;;5066107;28;20412;-66
2021/11/14 11:54:52;;;;;;;10.68;9.65;;;;;;;;;;5063969;28;20531;-67
2021/11/14 11:57:22;;;;;;;11.20;10.07;;;;;;;;;;5042593;28;21292;-68
2021/11/14 12:00:00;;;;;;;10.63;9.65;;;;;;;;;;5071203;28;20389;-67
2021/11/14 12:02:37;;;;;;;10.52;9.55;;;;;;;;;;5061620;28;20734;-65
2021/11/14 12:05:12;;;;;;;11.50;9.65;;;;;;;;;;5066459;28;20421;-67
2021/11/14 12:07:49;;;;;;;10.45;9.35;;;;;;;;;;5047695;28;20408;-67
2021/11/14 12:10:31;;;;;;;131.73;31.73;;;;;;;;;;5049211;28;20408;-65
2021/11/14 12:13:04;;;;;;;132.82;31.92;;;;;;;;;;5055067;28;20402;-65
2021/11/14 12:15:36;;;;;;;111.78;31.33;;;;;;;;;;5034078;28;20403;-68
2021/11/14 12:18:16;;;;;;;101.23;27.70;;;;;;;;;;5043949;28;20408;-69
2021/11/14 12:20:50;;;;;;;86.00;26.50;;;;;;;;;;5050385;28;20403;-68
2021/11/14 12:23:37;;;;;;;75.50;24.60;;;;;;;;;;5060938;28;20796;-68
2021/11/14 12:26:13;;;;;;;68.03;23.85;;;;;;;;;;5043305;28;20501;-69
2021/11/14 12:28:55;;;;;;;56.33;22.23;;;;;;;;;;5056127;28;20469;-69
2021/11/14 12:31:26;;;;;;;47.72;20.52;;;;;;;;;;5048159;28;20408;-69
2021/11/14 12:33:58;;;;;;;46.40;20.85;;;;;;;;;;5058552;28;20412;-69
2021/11/14 12:36:52;;;;;;;44.72;20.85;;;;;;;;;;5042567;28;20409;-66
2021/11/14 12:39:30;;;;;;;44.67;20.35;;;;;;;;;;5063464;28;20894;-66
2021/11/14 12:42:14;;;;;;;33.00;19.67;;;;;;;;;;5064362;28;20401;-67
2021/11/14 12:45:03;;;;;;;34.00;18.70;;;;;;;;;;5057443;28;20829;-67
2021/11/14 12:47:45;;;;;;;43.00;19.80;;;;;;;;;;5060867;28;20735;-66
2021/11/14 12:50:19;;;;;;;27.52;17.55;;;;;;;;;;5048251;28;20395;-68
2021/11/14 12:52:50;;;;;;;28.08;17.08;;;;;;;;;;5049420;28;20530;-66
2021/11/14 12:55:27;;;;;;;24.95;14.90;;;;;;;;;;5043609;28;21004;-70
2021/11/14 12:58:00;;;;;;;21.23;12.33;;;;;;;;;;5045532;28;20400;-70
2021/11/14 13:00:32;;;;;;;19.92;12.48;;;;;;;;;;5068254;28;20393;-71
2021/11/14 13:03:03;;;;;;;19.25;11.50;;;;;;;;;;5050261;28;20415;-70
2021/11/14 13:05:41;;;;;;;18.63;11.23;;;;;;;;;;5048171;28;20471;-70
2021/11/14 13:08:09;;;;;;;15.93;10.35;;;;;;;;;;5059328;28;20499;-70
2021/11/14 13:10:45;;;;;;;14.90;10.25;;;;;;;;;;5031866;28;20719;-69
2021/11/14 13:13:17;;;;;;;16.70;9.93;;;;;;;;;;5049617;28;20735;-69
2021/11/14 13:16:04;;;;;;;13.57;9.75;;;;;;;;;;5063323;28;20839;-70
2021/11/14 13:18:36;;;;;;;12.30;9.30;;;;;;;;;;5049026;28;20453;-70
2021/11/14 13:21:08;;;;;;;13.60;8.88;;;;;;;;;;5066286;28;20422;-68
2021/11/14 13:23:38;;;;;;;10.80;8.20;;;;;;;;;;5063589;28;20817;-68
2021/11/14 13:26:14;;;;;;;12.95;8.75;;;;;;;;;;5062763;28;20397;-71
2021/11/14 13:28:44;;;;;;;9.88;7.90;;;;;;;;;;5045824;28;20723;-72
2021/11/14 13:31:18;;;;;;;10.38;8.00;;;;;;;;;;5065786;28;20409;-72
2021/11/14 13:34:06;;;;;;;9.52;7.95;;;;;;;;;;5049522;28;20382;-72
2021/11/14 13:36:35;;;;;;;9.73;7.40;;;;;;;;;;5045004;28;20390;-72
2021/11/14 13:39:07;;;;;;;8.70;6.80;;;;;;;;;;5065045;28;20480;-70
2021/11/14 13:41:36;;;;;;;9.10;7.10;;;;;;;;;;5066931;28;20792;-70
2021/11/14 13:44:06;;;;;;;7.47;6.70;;;;;;;;;;5048788;28;20875;-70
2021/11/14 13:46:36;;;;;;;7.18;6.35;;;;;;;;;;5064723;28;20886;-70
2021/11/14 13:49:06;;;;;;;6.95;6.10;;;;;;;;;;5074030;28;20418;-73
2021/11/14 13:51:34;;;;;;;9.35;6.60;;;;;;;;;;5066470;28;20401;-70
2021/11/14 13:54:09;;;;;;;7.32;5.85;;;;;;;;;;5046676;28;20398;-72
2021/11/14 13:56:42;;;;;;;7.22;5.85;;;;;;;;;;5066033;28;20408;-74
2021/11/14 13:59:14;;;;;;;6.53;5.70;;;;;;;;;;5076439;28;20396;-69
2021/11/14 14:02:07;;;;;;;7.03;5.97;;;;;;;;;;5085686;28;20400;-69
2021/11/14 14:05:01;;;;;;;7.45;6.05;;;;;;;;;;5080987;28;20406;-70
2021/11/14 14:07:35;;;;;;;20.77;9.13;;;;;;;;;;5084380;28;20402;-72
2021/11/14 14:10:23;;;;;;;14.45;9.35;;;;;;;;;;5079188;28;20388;-72
2021/11/14 14:12:55;;;;;;;14.02;8.52;;;;;;;;;;5083515;28;20428;-72
2021/11/14 14:15:34;;;;;;;46.40;9.95;;;;;;;;;;5068970;28;20431;-72
2021/11/14 14:18:15;;;;;;;8.93;7.78;;;;;;;;;;5084883;28;20489;-72
2021/11/14 14:20:44;;;;;;;9.88;7.95;;;;;;;;;;5078050;28;20411;-72
2021/11/14 14:23:28;;;;;;;8.35;7.38;;;;;;;;;;5067601;28;20401;-72
2021/11/14 14:25:58;;;;;;;10.98;7.47;;;;;;;;;;5078684;28;20424;-72
2021/11/14 14:28:28;;;;;;;10.80;7.30;;;;;;;;;;5049685;28;20505;-72
2021/11/14 14:30:58;;;;;;;11.00;7.63;;;;;;;;;;5075611;28;20404;-72
2021/11/14 14:33:32;;;;;;;9.15;7.47;;;;;;;;;;5075987;28;20421;-72
2021/11/14 14:36:07;;;;;;;10.35;7.20;;;;;;;;;;5077209;28;21000;-71
2021/11/14 14:38:39;;;;;;;8.85;7.00;;;;;;;;;;5080034;28;20388;-71
2021/11/14 14:41:10;;;;;;;9.40;6.95;;;;;;;;;;5080216;28;20398;-71
2021/11/14 14:43:50;;;;;;;7.50;6.70;;;;;;;;;;5083235;28;20415;-70
2021/11/14 14:46:30;;;;;;;7.53;6.05;;;;;;;;;;5062885;28;20802;-72
2021/11/14 14:49:13;;;;;;;7.82;6.43;;;;;;;;;;5089113;28;20491;-72
2021/11/14 14:52:00;;;;;;;7.07;6.00;;;;;;;;;;5084196;28;20741;-71
2021/11/14 14:54:29;;;;;;;6.63;5.93;;;;;;;;;;5087834;28;20728;-72
2021/11/14 14:57:00;;;;;;;6.82;6.03;;;;;;;;;;5086898;28;20482;-72
2021/11/14 14:59:29;;;;;;;6.43;5.82;;;;;;;;;;5075902;28;20997;-73
2021/11/14 15:01:59;;;;;;;4.82;4.43;;;;;;;;;;5080241;28;20412;-70
2021/11/14 15:04:42;;;;;;;5.63;4.28;;;;;;;;;;5083994;28;20497;-70
2021/11/14 15:07:19;;;;;;;4.22;3.83;;;;;;;;;;5081927;28;20428;-69
2021/11/14 15:10:04;;;;;;;5.72;3.72;;;;;;;;;;5065261;28;20939;-68
2021/11/14 15:12:39;;;;;;;4.07;3.38;;;;;;;;;;5065630;28;20961;-68
2021/11/14 15:15:14;;;;;;;5.45;3.45;;;;;;;;;;5091608;28;20453;-71